sensor_id;sensor_type;location;lat;lon;timestamp;P1;durP1;ratioP1;P2;durP2;ratioP2
43620;SDS011;29213;50.770;7.298;2023-03-01T00:01:11;15.18;;;11.27;;
43620;SDS011;29213;50.770;7.298;2023-03-01T00:03:47;19.65;;;12.15;;
43620;SDS011;29213;50.770;7.298;2023-03-01T00:06:12;20.33;;;12.30;;
43620;SDS011;29213;50.770;7.298;2023-03-01T00:08:38;17.25;;;10.98;;
43620;SDS011;29213;50.770;7.298;2023-03-01T00:11:13;15.45;;;10.02;;
43620;SDS011;29213;50.770;7.298;2023-03-01T00:13:42;17.20;;;11.02;;
43620;SDS011;29213;50.770;7.298;2023-03-01T00:16:10;15.18;;;10.27;;
43620;SDS011;29213;50.770;7.298;2023-03-01T00:18:38;15.95;;;10.45;;
43620;SDS011;29213;50.770;7.298;2023-03-01T00:21:04;14.68;;;10.23;;
43620;SDS011;29213;50.770;7.298;2023-03-01T00:23:30;15.25;;;9.63;;
43620;SDS011;29213;50.770;7.298;2023-03-01T00:25:56;15.05;;;9.48;;
43620;SDS011;29213;50.770;7.298;2023-03-01T00:28:22;14.73;;;10.13;;
43620;SDS011;29213;50.770;7.298;2023-03-01T00:30:47;13.10;;;9.07;;
43620;SDS011;29213;50.770;7.298;2023-03-01T00:33:13;14.85;;;10.00;;
43620;SDS011;29213;50.770;7.298;2023-03-01T00:35:38;13.75;;;9.35;;
43620;SDS011;29213;50.770;7.298;2023-03-01T00:38:04;15.52;;;10.25;;
43620;SDS011;29213;50.770;7.298;2023-03-01T00:40:31;17.25;;;10.45;;
43620;SDS011;29213;50.770;7.298;2023-03-01T00:42:59;14.02;;;9.50;;
43620;SDS011;29213;50.770;7.298;2023-03-01T00:45:24;14.60;;;9.95;;
43620;SDS011;29213;50.770;7.298;2023-03-01T00:47:50;15.45;;;9.68;;
43620;SDS011;29213;50.770;7.298;2023-03-01T00:50:16;15.80;;;9.68;;
43620;SDS011;29213;50.770;7.298;2023-03-01T00:52:43;13.52;;;9.20;;
43620;SDS011;29213;50.770;7.298;2023-03-01T00:55:08;14.15;;;9.52;;
43620;SDS011;29213;50.770;7.298;2023-03-01T00:57:34;12.20;;;9.65;;
43620;SDS011;29213;50.770;7.298;2023-03-01T01:00:00;14.68;;;9.90;;
43620;SDS011;29213;50.770;7.298;2023-03-01T01:02:25;13.52;;;9.13;;
43620;SDS011;29213;50.770;7.298;2023-03-01T01:04:51;14.13;;;10.23;;
43620;SDS011;29213;50.770;7.298;2023-03-01T01:07:17;14.18;;;9.82;;
43620;SDS011;29213;50.770;7.298;2023-03-01T01:09:42;16.10;;;10.23;;
43620;SDS011;29213;50.770;7.298;2023-03-01T01:12:08;16.77;;;9.93;;
43620;SDS011;29213;50.770;7.298;2023-03-01T01:14:34;14.00;;;9.82;;
43620;SDS011;29213;50.770;7.298;2023-03-01T01:16:59;15.50;;;9.65;;
43620;SDS011;29213;50.770;7.298;2023-03-01T01:19:25;15.80;;;10.30;;
43620;SDS011;29213;50.770;7.298;2023-03-01T01:21:51;14.52;;;10.15;;
43620;SDS011;29213;50.770;7.298;2023-03-01T01:24:17;14.88;;;10.02;;
43620;SDS011;29213;50.770;7.298;2023-03-01T01:26:43;15.05;;;9.93;;
43620;SDS011;29213;50.770;7.298;2023-03-01T01:29:09;15.73;;;9.75;;
43620;SDS011;29213;50.770;7.298;2023-03-01T01:31:36;16.55;;;10.55;;
43620;SDS011;29213;50.770;7.298;2023-03-01T01:34:04;15.98;;;10.45;;
43620;SDS011;29213;50.770;7.298;2023-03-01T01:36:32;16.48;;;10.27;;
43620;SDS011;29213;50.770;7.298;2023-03-01T01:38:57;14.77;;;10.13;;
43620;SDS011;29213;50.770;7.298;2023-03-01T01:41:23;14.73;;;10.10;;
43620;SDS011;29213;50.770;7.298;2023-03-01T01:44:09;15.52;;;9.50;;
43620;SDS011;29213;50.770;7.298;2023-03-01T01:52:07;13.38;;;9.15;;
43620;SDS011;29213;50.770;7.298;2023-03-01T01:54:49;13.27;;;9.07;;
43620;SDS011;29213;50.770;7.298;2023-03-01T01:57:22;14.00;;;8.90;;
43620;SDS011;29213;50.770;7.298;2023-03-01T01:59:53;13.65;;;8.95;;
43620;SDS011;29213;50.770;7.298;2023-03-01T02:02:22;13.00;;;9.43;;
43620;SDS011;29213;50.770;7.298;2023-03-01T02:04:49;15.68;;;9.98;;
43620;SDS011;29213;50.770;7.298;2023-03-01T02:07:20;15.98;;;9.20;;
43620;SDS011;29213;50.770;7.298;2023-03-01T02:09:48;15.07;;;9.38;;
43620;SDS011;29213;50.770;7.298;2023-03-01T02:12:19;14.10;;;9.38;;
43620;SDS011;29213;50.770;7.298;2023-03-01T02:14:48;13.40;;;9.20;;
43620;SDS011;29213;50.770;7.298;2023-03-01T02:17:14;14.35;;;9.82;;
43620;SDS011;29213;50.770;7.298;2023-03-01T02:22:35;12.68;;;9.23;;
43620;SDS011;29213;50.770;7.298;2023-03-01T02:25:09;15.82;;;9.38;;
43620;SDS011;29213;50.770;7.298;2023-03-01T02:30:41;13.32;;;9.38;;
43620;SDS011;29213;50.770;7.298;2023-03-01T02:33:29;16.23;;;10.48;;
43620;SDS011;29213;50.770;7.298;2023-03-01T02:35:59;11.80;;;8.52;;
43620;SDS011;29213;50.770;7.298;2023-03-01T02:38:26;13.50;;;9.15;;
43620;SDS011;29213;50.770;7.298;2023-03-01T02:40:52;14.00;;;9.65;;
43620;SDS011;29213;50.770;7.298;2023-03-01T02:43:20;14.68;;;9.65;;
43620;SDS011;29213;50.770;7.298;2023-03-01T02:45:49;15.25;;;9.35;;
43620;SDS011;29213;50.770;7.298;2023-03-01T02:48:16;12.60;;;8.93;;
43620;SDS011;29213;50.770;7.298;2023-03-01T02:51:03;13.07;;;9.25;;
43620;SDS011;29213;50.770;7.298;2023-03-01T02:53:41;13.45;;;8.88;;
43620;SDS011;29213;50.770;7.298;2023-03-01T02:56:18;13.38;;;8.82;;
43620;SDS011;29213;50.770;7.298;2023-03-01T02:58:44;12.15;;;9.00;;
43620;SDS011;29213;50.770;7.298;2023-03-01T03:01:14;13.18;;;9.07;;
43620;SDS011;29213;50.770;7.298;2023-03-01T03:03:41;12.35;;;8.70;;
43620;SDS011;29213;50.770;7.298;2023-03-01T03:06:07;13.43;;;9.05;;
43620;SDS011;29213;50.770;7.298;2023-03-01T03:08:33;13.57;;;9.18;;
43620;SDS011;29213;50.770;7.298;2023-03-01T03:10:58;16.50;;;9.52;;
43620;SDS011;29213;50.770;7.298;2023-03-01T03:13:24;14.82;;;9.50;;
43620;SDS011;29213;50.770;7.298;2023-03-01T03:15:53;12.88;;;9.63;;
43620;SDS011;29213;50.770;7.298;2023-03-01T03:18:23;12.93;;;9.37;;
43620;SDS011;29213;50.770;7.298;2023-03-01T03:20:52;13.40;;;8.98;;
43620;SDS011;29213;50.770;7.298;2023-03-01T03:23:20;12.77;;;8.85;;
43620;SDS011;29213;50.770;7.298;2023-03-01T03:25:47;16.15;;;8.90;;
43620;SDS011;29213;50.770;7.298;2023-03-01T03:28:16;13.02;;;8.77;;
43620;SDS011;29213;50.770;7.298;2023-03-01T03:30:42;13.65;;;9.10;;
43620;SDS011;29213;50.770;7.298;2023-03-01T03:33:08;14.48;;;9.75;;
43620;SDS011;29213;50.770;7.298;2023-03-01T03:35:40;13.02;;;9.05;;
43620;SDS011;29213;50.770;7.298;2023-03-01T03:38:08;13.30;;;8.90;;
43620;SDS011;29213;50.770;7.298;2023-03-01T03:40:47;14.88;;;9.98;;
43620;SDS011;29213;50.770;7.298;2023-03-01T03:43:16;12.50;;;8.80;;
43620;SDS011;29213;50.770;7.298;2023-03-01T03:45:44;12.70;;;8.67;;
43620;SDS011;29213;50.770;7.298;2023-03-01T03:48:10;13.82;;;8.60;;
43620;SDS011;29213;50.770;7.298;2023-03-01T03:50:36;14.30;;;9.80;;
43620;SDS011;29213;50.770;7.298;2023-03-01T03:53:04;15.68;;;9.38;;
43620;SDS011;29213;50.770;7.298;2023-03-01T03:55:31;13.80;;;8.80;;
43620;SDS011;29213;50.770;7.298;2023-03-01T03:57:59;15.23;;;9.68;;
43620;SDS011;29213;50.770;7.298;2023-03-01T04:00:28;15.50;;;9.53;;
43620;SDS011;29213;50.770;7.298;2023-03-01T04:02:53;14.52;;;9.57;;
43620;SDS011;29213;50.770;7.298;2023-03-01T04:05:21;13.75;;;9.40;;
43620;SDS011;29213;50.770;7.298;2023-03-01T04:07:47;13.35;;;9.40;;
43620;SDS011;29213;50.770;7.298;2023-03-01T04:10:16;13.45;;;8.98;;
43620;SDS011;29213;50.770;7.298;2023-03-01T04:12:42;15.02;;;9.55;;
43620;SDS011;29213;50.770;7.298;2023-03-01T04:15:09;13.30;;;9.15;;
43620;SDS011;29213;50.770;7.298;2023-03-01T04:20:05;12.90;;;9.00;;
43620;SDS011;29213;50.770;7.298;2023-03-01T04:22:31;14.60;;;9.35;;
43620;SDS011;29213;50.770;7.298;2023-03-01T04:24:58;14.27;;;9.23;;
43620;SDS011;29213;50.770;7.298;2023-03-01T04:27:26;16.25;;;9.57;;
43620;SDS011;29213;50.770;7.298;2023-03-01T04:29:52;16.20;;;10.10;;
43620;SDS011;29213;50.770;7.298;2023-03-01T04:32:17;15.20;;;10.80;;
43620;SDS011;29213;50.770;7.298;2023-03-01T04:34:43;20.17;;;10.70;;
43620;SDS011;29213;50.770;7.298;2023-03-01T04:37:09;15.20;;;9.80;;
43620;SDS011;29213;50.770;7.298;2023-03-01T04:39:34;15.70;;;10.50;;
43620;SDS011;29213;50.770;7.298;2023-03-01T04:42:14;17.40;;;10.70;;
43620;SDS011;29213;50.770;7.298;2023-03-01T04:44:40;15.48;;;10.45;;
43620;SDS011;29213;50.770;7.298;2023-03-01T04:47:05;20.55;;;14.02;;
43620;SDS011;29213;50.770;7.298;2023-03-01T04:49:31;22.25;;;14.70;;
43620;SDS011;29213;50.770;7.298;2023-03-01T04:51:56;19.20;;;12.70;;
43620;SDS011;29213;50.770;7.298;2023-03-01T04:54:27;16.42;;;11.00;;
43620;SDS011;29213;50.770;7.298;2023-03-01T04:56:53;15.65;;;9.70;;
43620;SDS011;29213;50.770;7.298;2023-03-01T04:59:19;13.63;;;10.05;;
43620;SDS011;29213;50.770;7.298;2023-03-01T05:01:48;15.10;;;10.17;;
43620;SDS011;29213;50.770;7.298;2023-03-01T05:04:14;13.60;;;10.13;;
43620;SDS011;29213;50.770;7.298;2023-03-01T05:06:39;15.13;;;9.90;;
43620;SDS011;29213;50.770;7.298;2023-03-01T05:09:05;15.33;;;10.63;;
43620;SDS011;29213;50.770;7.298;2023-03-01T05:11:30;13.93;;;9.57;;
43620;SDS011;29213;50.770;7.298;2023-03-01T05:14:01;17.00;;;10.50;;
43620;SDS011;29213;50.770;7.298;2023-03-01T05:16:27;15.63;;;9.67;;
43620;SDS011;29213;50.770;7.298;2023-03-01T05:18:52;13.33;;;9.33;;
43620;SDS011;29213;50.770;7.298;2023-03-01T05:21:17;15.03;;;10.00;;
43620;SDS011;29213;50.770;7.298;2023-03-01T05:23:43;14.67;;;9.80;;
43620;SDS011;29213;50.770;7.298;2023-03-01T05:26:09;13.73;;;10.00;;
43620;SDS011;29213;50.770;7.298;2023-03-01T05:28:34;15.93;;;10.73;;
43620;SDS011;29213;50.770;7.298;2023-03-01T05:31:00;15.55;;;10.98;;
43620;SDS011;29213;50.770;7.298;2023-03-01T05:33:26;16.67;;;10.53;;
43620;SDS011;29213;50.770;7.298;2023-03-01T05:35:52;18.27;;;10.37;;
43620;SDS011;29213;50.770;7.298;2023-03-01T05:38:19;19.83;;;12.40;;
43620;SDS011;29213;50.770;7.298;2023-03-01T05:40:46;17.40;;;11.63;;
43620;SDS011;29213;50.770;7.298;2023-03-01T05:43:13;17.42;;;11.07;;
43620;SDS011;29213;50.770;7.298;2023-03-01T05:45:40;16.38;;;10.48;;
43620;SDS011;29213;50.770;7.298;2023-03-01T05:48:06;16.35;;;10.68;;
43620;SDS011;29213;50.770;7.298;2023-03-01T05:50:34;14.83;;;10.33;;
43620;SDS011;29213;50.770;7.298;2023-03-01T05:53:04;16.65;;;10.02;;
43620;SDS011;29213;50.770;7.298;2023-03-01T05:55:31;15.00;;;9.80;;
43620;SDS011;29213;50.770;7.298;2023-03-01T05:57:58;17.50;;;10.60;;
43620;SDS011;29213;50.770;7.298;2023-03-01T06:00:25;15.90;;;10.10;;
43620;SDS011;29213;50.770;7.298;2023-03-01T06:02:53;16.40;;;11.00;;
43620;SDS011;29213;50.770;7.298;2023-03-01T06:05:19;16.33;;;11.27;;
43620;SDS011;29213;50.770;7.298;2023-03-01T06:07:44;15.43;;;10.10;;
43620;SDS011;29213;50.770;7.298;2023-03-01T06:10:10;16.70;;;10.63;;
43620;SDS011;29213;50.770;7.298;2023-03-01T06:12:37;16.40;;;11.13;;
43620;SDS011;29213;50.770;7.298;2023-03-01T06:15:06;16.50;;;11.27;;
43620;SDS011;29213;50.770;7.298;2023-03-01T06:17:35;16.17;;;11.73;;
43620;SDS011;29213;50.770;7.298;2023-03-01T06:20:36;18.10;;;12.10;;
43620;SDS011;29213;50.770;7.298;2023-03-01T06:22:54;25.03;;;15.47;;
43620;SDS011;29213;50.770;7.298;2023-03-01T06:25:20;20.63;;;13.03;;
43620;SDS011;29213;50.770;7.298;2023-03-01T06:27:47;22.03;;;13.97;;
43620;SDS011;29213;50.770;7.298;2023-03-01T06:30:14;23.90;;;14.50;;
43620;SDS011;29213;50.770;7.298;2023-03-01T06:32:41;21.00;;;14.13;;
43620;SDS011;29213;50.770;7.298;2023-03-01T06:35:07;18.57;;;11.97;;
43620;SDS011;29213;50.770;7.298;2023-03-01T06:37:35;20.50;;;13.00;;
43620;SDS011;29213;50.770;7.298;2023-03-01T06:40:01;17.80;;;12.07;;
43620;SDS011;29213;50.770;7.298;2023-03-01T06:42:34;18.87;;;12.67;;
43620;SDS011;29213;50.770;7.298;2023-03-01T06:45:00;18.07;;;12.80;;
43620;SDS011;29213;50.770;7.298;2023-03-01T06:47:25;20.27;;;12.60;;
43620;SDS011;29213;50.770;7.298;2023-03-01T06:49:50;20.83;;;12.47;;
43620;SDS011;29213;50.770;7.298;2023-03-01T06:52:16;18.23;;;12.30;;
43620;SDS011;29213;50.770;7.298;2023-03-01T06:54:41;18.90;;;12.53;;
43620;SDS011;29213;50.770;7.298;2023-03-01T06:57:06;15.67;;;11.37;;
43620;SDS011;29213;50.770;7.298;2023-03-01T06:59:32;17.60;;;11.57;;
43620;SDS011;29213;50.770;7.298;2023-03-01T07:01:57;18.57;;;12.03;;
43620;SDS011;29213;50.770;7.298;2023-03-01T07:04:22;22.57;;;13.10;;
43620;SDS011;29213;50.770;7.298;2023-03-01T07:06:48;17.53;;;12.07;;
43620;SDS011;29213;50.770;7.298;2023-03-01T07:09:23;20.50;;;13.43;;
43620;SDS011;29213;50.770;7.298;2023-03-01T07:11:49;26.30;;;16.80;;
43620;SDS011;29213;50.770;7.298;2023-03-01T07:14:15;24.60;;;15.63;;
43620;SDS011;29213;50.770;7.298;2023-03-01T07:16:41;23.17;;;14.20;;
43620;SDS011;29213;50.770;7.298;2023-03-01T07:19:06;20.58;;;14.65;;
43620;SDS011;29213;50.770;7.298;2023-03-01T07:21:31;17.80;;;12.70;;
43620;SDS011;29213;50.770;7.298;2023-03-01T07:23:57;19.10;;;12.93;;
43620;SDS011;29213;50.770;7.298;2023-03-01T07:26:22;19.40;;;12.87;;
43620;SDS011;29213;50.770;7.298;2023-03-01T07:28:48;18.88;;;12.30;;
43620;SDS011;29213;50.770;7.298;2023-03-01T07:31:13;17.42;;;11.77;;
43620;SDS011;29213;50.770;7.298;2023-03-01T07:33:39;20.80;;;12.75;;
43620;SDS011;29213;50.770;7.298;2023-03-01T07:36:05;20.80;;;12.90;;
43620;SDS011;29213;50.770;7.298;2023-03-01T07:38:31;19.70;;;13.10;;
43620;SDS011;29213;50.770;7.298;2023-03-01T07:41:00;16.80;;;11.60;;
43620;SDS011;29213;50.770;7.298;2023-03-01T07:43:27;18.83;;;12.50;;
43620;SDS011;29213;50.770;7.298;2023-03-01T07:45:53;21.23;;;12.65;;
43620;SDS011;29213;50.770;7.298;2023-03-01T07:48:19;18.05;;;11.73;;
43620;SDS011;29213;50.770;7.298;2023-03-01T07:50:44;17.45;;;12.43;;
43620;SDS011;29213;50.770;7.298;2023-03-01T07:53:10;19.80;;;13.30;;
43620;SDS011;29213;50.770;7.298;2023-03-01T07:55:36;19.25;;;13.27;;
43620;SDS011;29213;50.770;7.298;2023-03-01T07:58:02;18.40;;;13.07;;
43620;SDS011;29213;50.770;7.298;2023-03-01T08:00:27;20.80;;;13.23;;
43620;SDS011;29213;50.770;7.298;2023-03-01T08:02:52;17.73;;;12.05;;
43620;SDS011;29213;50.770;7.298;2023-03-01T08:05:18;19.33;;;13.52;;
43620;SDS011;29213;50.770;7.298;2023-03-01T08:07:43;18.10;;;13.20;;
43620;SDS011;29213;50.770;7.298;2023-03-01T08:10:09;20.10;;;13.77;;
43620;SDS011;29213;50.770;7.298;2023-03-01T08:12:35;19.95;;;13.68;;
43620;SDS011;29213;50.770;7.298;2023-03-01T08:15:00;22.25;;;13.10;;
43620;SDS011;29213;50.770;7.298;2023-03-01T08:17:25;18.20;;;12.93;;
43620;SDS011;29213;50.770;7.298;2023-03-01T08:19:51;18.90;;;12.10;;
43620;SDS011;29213;50.770;7.298;2023-03-01T08:22:16;17.33;;;12.25;;
43620;SDS011;29213;50.770;7.298;2023-03-01T08:24:42;16.40;;;11.77;;
43620;SDS011;29213;50.770;7.298;2023-03-01T08:27:07;16.73;;;11.98;;
43620;SDS011;29213;50.770;7.298;2023-03-01T08:29:33;16.83;;;12.20;;
43620;SDS011;29213;50.770;7.298;2023-03-01T08:31:59;17.40;;;12.05;;
43620;SDS011;29213;50.770;7.298;2023-03-01T08:34:25;17.42;;;12.43;;
43620;SDS011;29213;50.770;7.298;2023-03-01T08:36:50;17.85;;;12.15;;
43620;SDS011;29213;50.770;7.298;2023-03-01T08:39:17;17.40;;;11.65;;
43620;SDS011;29213;50.770;7.298;2023-03-01T08:41:44;17.42;;;11.70;;
43620;SDS011;29213;50.770;7.298;2023-03-01T08:44:11;15.82;;;11.98;;
43620;SDS011;29213;50.770;7.298;2023-03-01T08:46:38;16.67;;;12.68;;
43620;SDS011;29213;50.770;7.298;2023-03-01T08:49:15;14.38;;;11.35;;
43620;SDS011;29213;50.770;7.298;2023-03-01T08:51:43;15.68;;;10.85;;
43620;SDS011;29213;50.770;7.298;2023-03-01T08:54:13;16.65;;;11.57;;
43620;SDS011;29213;50.770;7.298;2023-03-01T08:56:43;18.75;;;12.20;;
43620;SDS011;29213;50.770;7.298;2023-03-01T08:59:10;27.83;;;15.35;;
43620;SDS011;29213;50.770;7.298;2023-03-01T09:01:36;31.48;;;16.02;;
43620;SDS011;29213;50.770;7.298;2023-03-01T09:04:02;22.80;;;13.60;;
43620;SDS011;29213;50.770;7.298;2023-03-01T09:06:30;20.90;;;13.30;;
43620;SDS011;29213;50.770;7.298;2023-03-01T09:08:58;21.20;;;14.13;;
43620;SDS011;29213;50.770;7.298;2023-03-01T09:11:23;17.92;;;12.70;;
43620;SDS011;29213;50.770;7.298;2023-03-01T09:13:49;18.27;;;12.30;;
43620;SDS011;29213;50.770;7.298;2023-03-01T09:16:15;16.13;;;11.48;;
43620;SDS011;29213;50.770;7.298;2023-03-01T09:18:43;15.43;;;11.30;;
43620;SDS011;29213;50.770;7.298;2023-03-01T09:21:10;16.27;;;11.55;;
43620;SDS011;29213;50.770;7.298;2023-03-01T09:23:38;15.98;;;11.25;;
43620;SDS011;29213;50.770;7.298;2023-03-01T09:26:08;14.70;;;10.97;;
43620;SDS011;29213;50.770;7.298;2023-03-01T09:28:37;17.08;;;11.27;;
43620;SDS011;29213;50.770;7.298;2023-03-01T09:31:06;15.93;;;10.90;;
43620;SDS011;29213;50.770;7.298;2023-03-01T09:33:32;15.93;;;10.75;;
43620;SDS011;29213;50.770;7.298;2023-03-01T09:35:58;14.32;;;10.88;;
43620;SDS011;29213;50.770;7.298;2023-03-01T09:38:25;16.17;;;10.75;;
43620;SDS011;29213;50.770;7.298;2023-03-01T09:40:51;14.60;;;10.68;;
43620;SDS011;29213;50.770;7.298;2023-03-01T09:43:25;15.52;;;11.15;;
43620;SDS011;29213;50.770;7.298;2023-03-01T09:45:56;14.98;;;11.15;;
43620;SDS011;29213;50.770;7.298;2023-03-01T09:50:52;13.10;;;9.65;;
43620;SDS011;29213;50.770;7.298;2023-03-01T09:53:22;17.13;;;10.75;;
43620;SDS011;29213;50.770;7.298;2023-03-01T09:55:58;15.82;;;10.07;;
43620;SDS011;29213;50.770;7.298;2023-03-01T10:03:52;14.43;;;10.25;;
43620;SDS011;29213;50.770;7.298;2023-03-01T10:06:42;15.45;;;10.55;;
43620;SDS011;29213;50.770;7.298;2023-03-01T10:09:17;16.02;;;10.50;;
43620;SDS011;29213;50.770;7.298;2023-03-01T10:11:45;13.93;;;10.05;;
43620;SDS011;29213;50.770;7.298;2023-03-01T10:16:47;15.02;;;10.60;;
43620;SDS011;29213;50.770;7.298;2023-03-01T10:19:30;13.80;;;9.65;;
43620;SDS011;29213;50.770;7.298;2023-03-01T10:22:02;14.93;;;10.25;;
43620;SDS011;29213;50.770;7.298;2023-03-01T10:24:41;14.50;;;10.18;;
43620;SDS011;29213;50.770;7.298;2023-03-01T10:27:09;16.00;;;9.77;;
43620;SDS011;29213;50.770;7.298;2023-03-01T10:29:46;12.75;;;9.13;;
43620;SDS011;29213;50.770;7.298;2023-03-01T10:32:13;13.98;;;9.43;;
43620;SDS011;29213;50.770;7.298;2023-03-01T10:34:38;12.38;;;9.60;;
43620;SDS011;29213;50.770;7.298;2023-03-01T10:37:11;14.80;;;9.13;;
43620;SDS011;29213;50.770;7.298;2023-03-01T10:42:38;13.20;;;9.13;;
43620;SDS011;29213;50.770;7.298;2023-03-01T10:50:33;14.52;;;9.02;;
43620;SDS011;29213;50.770;7.298;2023-03-01T10:53:03;13.75;;;8.80;;
43620;SDS011;29213;50.770;7.298;2023-03-01T11:03:14;9.93;;;7.55;;
43620;SDS011;29213;50.770;7.298;2023-03-01T11:06:04;12.23;;;7.88;;
43620;SDS011;29213;50.770;7.298;2023-03-01T11:08:40;13.32;;;8.15;;
43620;SDS011;29213;50.770;7.298;2023-03-01T11:16:36;11.50;;;7.47;;
43620;SDS011;29213;50.770;7.298;2023-03-01T11:21:42;11.48;;;7.68;;
43620;SDS011;29213;50.770;7.298;2023-03-01T11:24:17;11.57;;;8.23;;
43620;SDS011;29213;50.770;7.298;2023-03-01T11:26:45;12.70;;;8.25;;
43620;SDS011;29213;50.770;7.298;2023-03-01T11:32:07;11.45;;;7.53;;
43620;SDS011;29213;50.770;7.298;2023-03-01T11:34:43;10.88;;;7.05;;
43620;SDS011;29213;50.770;7.298;2023-03-01T11:37:35;11.43;;;7.20;;
43620;SDS011;29213;50.770;7.298;2023-03-01T11:40:17;9.80;;;6.85;;
43620;SDS011;29213;50.770;7.298;2023-03-01T11:42:55;10.88;;;7.07;;
43620;SDS011;29213;50.770;7.298;2023-03-01T11:50:58;8.93;;;7.00;;
43620;SDS011;29213;50.770;7.298;2023-03-01T11:56:20;9.60;;;7.00;;
43620;SDS011;29213;50.770;7.298;2023-03-01T12:01:47;9.73;;;6.50;;
43620;SDS011;29213;50.770;7.298;2023-03-01T12:09:59;9.63;;;6.90;;
43620;SDS011;29213;50.770;7.298;2023-03-01T12:12:29;9.57;;;6.25;;
43620;SDS011;29213;50.770;7.298;2023-03-01T12:20:58;10.07;;;6.53;;
43620;SDS011;29213;50.770;7.298;2023-03-01T12:23:48;8.52;;;6.10;;
43620;SDS011;29213;50.770;7.298;2023-03-01T12:29:07;8.55;;;5.85;;
43620;SDS011;29213;50.770;7.298;2023-03-01T12:31:49;8.82;;;6.20;;
43620;SDS011;29213;50.770;7.298;2023-03-01T12:43:43;9.13;;;5.70;;
43620;SDS011;29213;50.770;7.298;2023-03-01T12:51:22;6.55;;;4.72;;
43620;SDS011;29213;50.770;7.298;2023-03-01T12:56:19;7.78;;;4.85;;
43620;SDS011;29213;50.770;7.298;2023-03-01T12:58:59;8.93;;;5.40;;
43620;SDS011;29213;50.770;7.298;2023-03-01T13:04:18;8.25;;;5.00;;
43620;SDS011;29213;50.770;7.298;2023-03-01T13:07:08;7.10;;;4.70;;
43620;SDS011;29213;50.770;7.298;2023-03-01T13:17:47;6.47;;;4.35;;
43620;SDS011;29213;50.770;7.298;2023-03-01T13:20:14;6.10;;;4.07;;
43620;SDS011;29213;50.770;7.298;2023-03-01T13:22:42;8.77;;;4.50;;
43620;SDS011;29213;50.770;7.298;2023-03-01T13:25:18;9.10;;;5.70;;
43620;SDS011;29213;50.770;7.298;2023-03-01T13:27:45;7.97;;;5.70;;
43620;SDS011;29213;50.770;7.298;2023-03-01T13:30:38;9.40;;;5.47;;
43620;SDS011;29213;50.770;7.298;2023-03-01T13:35:48;8.30;;;5.25;;
43620;SDS011;29213;50.770;7.298;2023-03-01T13:41:02;8.38;;;5.18;;
43620;SDS011;29213;50.770;7.298;2023-03-01T13:43:31;8.23;;;4.75;;
43620;SDS011;29213;50.770;7.298;2023-03-01T13:45:59;6.45;;;4.45;;
43620;SDS011;29213;50.770;7.298;2023-03-01T13:48:28;7.82;;;5.45;;
43620;SDS011;29213;50.770;7.298;2023-03-01T13:50:59;8.70;;;5.47;;
43620;SDS011;29213;50.770;7.298;2023-03-01T13:53:35;8.75;;;5.93;;
43620;SDS011;29213;50.770;7.298;2023-03-01T13:56:09;7.90;;;5.40;;
43620;SDS011;29213;50.770;7.298;2023-03-01T13:58:47;8.30;;;5.78;;
43620;SDS011;29213;50.770;7.298;2023-03-01T14:01:26;7.57;;;4.70;;
43620;SDS011;29213;50.770;7.298;2023-03-01T14:03:57;7.68;;;4.97;;
43620;SDS011;29213;50.770;7.298;2023-03-01T14:06:24;8.27;;;5.10;;
43620;SDS011;29213;50.770;7.298;2023-03-01T14:09:00;6.95;;;4.45;;
43620;SDS011;29213;50.770;7.298;2023-03-01T14:19:58;5.97;;;4.05;;
43620;SDS011;29213;50.770;7.298;2023-03-01T14:22:34;5.55;;;3.70;;
43620;SDS011;29213;50.770;7.298;2023-03-01T14:25:16;5.50;;;3.60;;
43620;SDS011;29213;50.770;7.298;2023-03-01T14:27:45;5.57;;;3.70;;
43620;SDS011;29213;50.770;7.298;2023-03-01T14:30:19;5.63;;;3.80;;
43620;SDS011;29213;50.770;7.298;2023-03-01T14:32:56;7.43;;;3.80;;
43620;SDS011;29213;50.770;7.298;2023-03-01T14:35:24;6.80;;;4.10;;
43620;SDS011;29213;50.770;7.298;2023-03-01T14:37:54;6.47;;;4.28;;
43620;SDS011;29213;50.770;7.298;2023-03-01T14:40:21;5.72;;;3.72;;
43620;SDS011;29213;50.770;7.298;2023-03-01T14:42:49;5.63;;;3.45;;
43620;SDS011;29213;50.770;7.298;2023-03-01T14:45:15;8.70;;;4.32;;
43620;SDS011;29213;50.770;7.298;2023-03-01T14:47:43;6.43;;;4.30;;
43620;SDS011;29213;50.770;7.298;2023-03-01T14:50:15;7.13;;;4.05;;
43620;SDS011;29213;50.770;7.298;2023-03-01T14:52:47;5.72;;;3.88;;
43620;SDS011;29213;50.770;7.298;2023-03-01T14:55:16;6.65;;;4.57;;
43620;SDS011;29213;50.770;7.298;2023-03-01T14:57:44;7.95;;;5.15;;
43620;SDS011;29213;50.770;7.298;2023-03-01T15:00:16;7.85;;;4.40;;
43620;SDS011;29213;50.770;7.298;2023-03-01T15:02:45;7.07;;;4.25;;
43620;SDS011;29213;50.770;7.298;2023-03-01T15:05:13;6.85;;;4.68;;
43620;SDS011;29213;50.770;7.298;2023-03-01T15:07:42;6.35;;;3.92;;
43620;SDS011;29213;50.770;7.298;2023-03-01T15:10:19;6.82;;;4.20;;
43620;SDS011;29213;50.770;7.298;2023-03-01T15:12:47;6.95;;;4.38;;
43620;SDS011;29213;50.770;7.298;2023-03-01T15:15:19;6.60;;;4.50;;
43620;SDS011;29213;50.770;7.298;2023-03-01T15:18:00;6.88;;;4.57;;
43620;SDS011;29213;50.770;7.298;2023-03-01T15:20:28;6.45;;;4.63;;
43620;SDS011;29213;50.770;7.298;2023-03-01T15:23:00;6.28;;;4.07;;
43620;SDS011;29213;50.770;7.298;2023-03-01T15:25:27;5.88;;;3.63;;
43620;SDS011;29213;50.770;7.298;2023-03-01T15:27:55;5.97;;;3.80;;
43620;SDS011;29213;50.770;7.298;2023-03-01T15:30:27;5.43;;;3.78;;
43620;SDS011;29213;50.770;7.298;2023-03-01T15:35:52;5.00;;;3.60;;
43620;SDS011;29213;50.770;7.298;2023-03-01T15:41:04;5.95;;;3.85;;
43620;SDS011;29213;50.770;7.298;2023-03-01T15:43:46;6.75;;;3.72;;
43620;SDS011;29213;50.770;7.298;2023-03-01T15:46:16;5.47;;;3.50;;
43620;SDS011;29213;50.770;7.298;2023-03-01T15:48:47;6.57;;;3.78;;
43620;SDS011;29213;50.770;7.298;2023-03-01T15:51:15;6.30;;;3.88;;
43620;SDS011;29213;50.770;7.298;2023-03-01T15:53:42;6.78;;;3.95;;
43620;SDS011;29213;50.770;7.298;2023-03-01T15:56:14;6.05;;;3.90;;
43620;SDS011;29213;50.770;7.298;2023-03-01T15:58:39;6.18;;;3.70;;
43620;SDS011;29213;50.770;7.298;2023-03-01T16:01:10;6.43;;;3.85;;
43620;SDS011;29213;50.770;7.298;2023-03-01T16:03:42;7.35;;;3.70;;
43620;SDS011;29213;50.770;7.298;2023-03-01T16:06:11;7.47;;;4.07;;
43620;SDS011;29213;50.770;7.298;2023-03-01T16:08:37;7.68;;;4.13;;
43620;SDS011;29213;50.770;7.298;2023-03-01T16:11:04;6.50;;;4.75;;
43620;SDS011;29213;50.770;7.298;2023-03-01T16:13:35;6.70;;;3.75;;
43620;SDS011;29213;50.770;7.298;2023-03-01T16:16:00;5.97;;;3.67;;
43620;SDS011;29213;50.770;7.298;2023-03-01T16:18:25;6.78;;;4.03;;
43620;SDS011;29213;50.770;7.298;2023-03-01T16:20:51;6.18;;;3.75;;
43620;SDS011;29213;50.770;7.298;2023-03-01T16:23:17;6.85;;;3.85;;
43620;SDS011;29213;50.770;7.298;2023-03-01T16:25:43;5.72;;;3.83;;
43620;SDS011;29213;50.770;7.298;2023-03-01T16:28:09;14.27;;;8.48;;
43620;SDS011;29213;50.770;7.298;2023-03-01T16:30:35;13.85;;;7.88;;
43620;SDS011;29213;50.770;7.298;2023-03-01T16:33:04;20.30;;;11.63;;
43620;SDS011;29213;50.770;7.298;2023-03-01T16:35:32;16.05;;;9.52;;
43620;SDS011;29213;50.770;7.298;2023-03-01T16:37:59;14.75;;;8.57;;
43620;SDS011;29213;50.770;7.298;2023-03-01T16:40:26;10.85;;;6.70;;
43620;SDS011;29213;50.770;7.298;2023-03-01T16:42:53;9.32;;;5.18;;
43620;SDS011;29213;50.770;7.298;2023-03-01T16:45:24;7.40;;;4.90;;